Time;durP1;ratioP1;P1;durP2;ratioP2;P2;SDS_P1;SDS_P2;PMS_P1;PMS_P2;Temp;Humidity;BMP_temperature;BMP_pressure;BME280_temperature;BME280_humidity;BME280_pressure;Samples;Min_cycle;Max_cycle;Signal;HPM_P1;HPM_P2
2022/08/21 00:01:43;;;;;;;10.20;4.20;;;;;;;;;;5114233;28;20474;-80
2022/08/21 00:04:09;;;;;;;8.77;4.22;;;;;;;;;;5114080;28;20100;-79
2022/08/21 00:06:37;;;;;;;7.53;4.03;;;;;;;;;;5114449;28;20036;-79
2022/08/21 00:09:04;;;;;;;10.13;3.70;;;;;;;;;;5099718;28;20043;-80
2022/08/21 00:11:30;;;;;;;5.95;4.07;;;;;;;;;;5093921;28;20039;-79
2022/08/21 00:13:56;;;;;;;7.57;3.60;;;;;;;;;;5093750;28;20513;-80
2022/08/21 00:16:22;;;;;;;6.30;3.85;;;;;;;;;;5093968;28;20094;-79
2022/08/21 00:18:49;;;;;;;8.77;3.95;;;;;;;;;;5093705;28;20031;-80
2022/08/21 00:21:15;;;;;;;9.02;3.90;;;;;;;;;;5093833;28;20077;-79
2022/08/21 00:23:41;;;;;;;6.43;3.72;;;;;;;;;;5093641;28;20474;-80
2022/08/21 00:26:08;;;;;;;6.05;3.70;;;;;;;;;;5093340;28;20099;-79
2022/08/21 00:28:34;;;;;;;7.10;3.95;;;;;;;;;;5093743;28;20047;-79
2022/08/21 00:31:00;;;;;;;7.97;4.50;;;;;;;;;;5093392;28;20024;-79
2022/08/21 00:33:27;;;;;;;7.80;4.18;;;;;;;;;;5093445;28;20365;-80
2022/08/21 00:35:53;;;;;;;13.98;4.35;;;;;;;;;;5093292;28;20031;-80
2022/08/21 00:38:19;;;;;;;9.13;4.65;;;;;;;;;;5093116;28;20036;-80
2022/08/21 00:40:48;;;;;;;11.20;4.30;;;;;;;;;;5093766;28;20095;-80
2022/08/21 00:43:17;;;;;;;10.07;4.40;;;;;;;;;;5093281;28;20508;-80
2022/08/21 00:45:44;;;;;;;9.18;4.47;;;;;;;;;;5093239;28;20943;-80
2022/08/21 00:48:10;;;;;;;8.07;4.15;;;;;;;;;;5112884;28;20027;-80
2022/08/21 00:50:39;;;;;;;10.02;4.20;;;;;;;;;;5095012;28;20381;-80
2022/08/21 00:53:06;;;;;;;6.80;4.25;;;;;;;;;;5114267;28;20034;-80
2022/08/21 00:55:33;;;;;;;10.27;4.47;;;;;;;;;;5113548;28;20032;-79
2022/08/21 00:58:00;;;;;;;14.95;5.68;;;;;;;;;;5113423;28;20051;-80
2022/08/21 01:00:31;;;;;;;7.95;4.28;;;;;;;;;;5113901;28;20027;-79
2022/08/21 01:02:58;;;;;;;11.32;4.55;;;;;;;;;;5113110;28;20107;-80
2022/08/21 01:05:24;;;;;;;8.25;4.47;;;;;;;;;;5113201;28;20059;-80
2022/08/21 01:07:51;;;;;;;10.13;4.35;;;;;;;;;;5094733;28;20027;-80
2022/08/21 01:10:18;;;;;;;12.63;5.03;;;;;;;;;;5113549;28;20414;-79
2022/08/21 01:12:44;;;;;;;10.82;4.00;;;;;;;;;;5113537;28;20039;-79
2022/08/21 01:15:11;;;;;;;11.27;3.97;;;;;;;;;;5112846;28;20024;-80
2022/08/21 01:17:37;;;;;;;8.15;4.50;;;;;;;;;;5094425;28;20019;-80
2022/08/21 01:20:06;;;;;;;10.82;4.28;;;;;;;;;;5113083;28;20028;-80
2022/08/21 01:22:32;;;;;;;10.57;4.93;;;;;;;;;;5112907;28;20513;-80
2022/08/21 01:24:58;;;;;;;10.68;4.78;;;;;;;;;;5097831;28;20410;-80
2022/08/21 01:27:24;;;;;;;12.13;4.22;;;;;;;;;;5074152;28;20024;-80
2022/08/21 01:29:58;;;;;;;5.95;4.20;;;;;;;;;;5092349;28;20020;-80
2022/08/21 01:32:25;;;;;;;8.02;4.57;;;;;;;;;;5092717;28;20028;-80
2022/08/21 01:34:52;;;;;;;9.00;4.70;;;;;;;;;;5091850;28;20599;-80
2022/08/21 01:37:19;;;;;;;10.80;4.93;;;;;;;;;;5092197;28;20153;-79
2022/08/21 01:39:46;;;;;;;7.35;4.22;;;;;;;;;;5092393;28;20024;-80
2022/08/21 01:42:12;;;;;;;7.97;4.35;;;;;;;;;;5092469;28;20031;-80
2022/08/21 01:44:38;;;;;;;13.52;4.68;;;;;;;;;;5092367;28;20024;-80
2022/08/21 01:47:07;;;;;;;8.82;4.38;;;;;;;;;;5074348;28;20027;-80
2022/08/21 01:49:33;;;;;;;10.48;4.70;;;;;;;;;;5092019;28;20518;-80
2022/08/21 01:51:59;;;;;;;13.32;4.70;;;;;;;;;;5092280;28;20119;-80
2022/08/21 01:54:25;;;;;;;10.80;4.75;;;;;;;;;;5073923;28;20024;-79
2022/08/21 01:56:53;;;;;;;10.63;4.60;;;;;;;;;;5091733;28;20436;-80
2022/08/21 01:59:20;;;;;;;10.10;4.93;;;;;;;;;;5092299;28;20462;-80
2022/08/21 02:01:46;;;;;;;10.90;4.90;;;;;;;;;;5092091;28;20063;-79
2022/08/21 02:04:12;;;;;;;9.77;4.70;;;;;;;;;;5092411;28;20102;-80
2022/08/21 02:06:39;;;;;;;9.63;4.80;;;;;;;;;;5091955;28;20463;-80
2022/08/21 02:09:07;;;;;;;10.35;5.13;;;;;;;;;;5106716;28;20042;-79
2022/08/21 02:11:33;;;;;;;8.82;5.53;;;;;;;;;;5112471;28;20028;-79
2022/08/21 02:13:59;;;;;;;10.88;5.22;;;;;;;;;;5112089;28;20024;-79
2022/08/21 02:16:25;;;;;;;9.13;4.70;;;;;;;;;;5112658;28;20365;-80
2022/08/21 02:18:51;;;;;;;8.73;4.70;;;;;;;;;;5093911;28;20027;-79
2022/08/21 02:21:17;;;;;;;8.10;5.55;;;;;;;;;;5112017;28;20020;-80
2022/08/21 02:23:44;;;;;;;10.73;4.78;;;;;;;;;;5093889;28;20024;-80
2022/08/21 02:26:11;;;;;;;10.48;5.30;;;;;;;;;;5112052;28;20055;-80
2022/08/21 02:28:37;;;;;;;10.18;5.70;;;;;;;;;;5111966;28;20023;-79
2022/08/21 02:31:04;;;;;;;16.60;5.43;;;;;;;;;;5112532;28;20027;-79
2022/08/21 02:33:30;;;;;;;14.18;6.10;;;;;;;;;;5112427;28;20449;-79
2022/08/21 02:35:56;;;;;;;9.27;5.40;;;;;;;;;;5093835;28;20031;-79
2022/08/21 02:38:25;;;;;;;11.90;5.20;;;;;;;;;;5112415;28;20396;-80
2022/08/21 02:40:52;;;;;;;11.57;5.65;;;;;;;;;;5111925;28;20035;-80
2022/08/21 02:43:20;;;;;;;14.80;6.30;;;;;;;;;;5111901;28;20027;-80
2022/08/21 02:45:47;;;;;;;11.15;5.43;;;;;;;;;;5112495;28;20028;-80
2022/08/21 02:48:15;;;;;;;9.48;5.68;;;;;;;;;;5075983;28;20119;-79
2022/08/21 02:50:43;;;;;;;8.25;4.95;;;;;;;;;;5095632;28;20039;-79
2022/08/21 02:53:10;;;;;;;10.45;5.50;;;;;;;;;;5095694;28;20020;-80
2022/08/21 02:55:37;;;;;;;13.25;5.60;;;;;;;;;;5077083;28;20173;-79
2022/08/21 02:58:05;;;;;;;9.23;5.32;;;;;;;;;;5095100;28;20541;-80
2022/08/21 03:00:31;;;;;;;11.77;6.10;;;;;;;;;;5095257;28;20334;-79
2022/08/21 03:02:58;;;;;;;10.60;6.00;;;;;;;;;;5095432;28;20089;-79
2022/08/21 03:05:24;;;;;;;14.85;6.72;;;;;;;;;;5095295;28;20024;-80
2022/08/21 03:07:52;;;;;;;8.48;5.78;;;;;;;;;;5094759;28;20082;-80
2022/08/21 03:10:19;;;;;;;10.95;5.47;;;;;;;;;;5094951;28;20027;-80
2022/08/21 03:12:46;;;;;;;12.48;6.10;;;;;;;;;;5095316;28;20023;-79
2022/08/21 03:15:13;;;;;;;10.40;5.82;;;;;;;;;;5094963;28;20056;-80
2022/08/21 03:17:39;;;;;;;11.68;5.80;;;;;;;;;;5094824;28;20028;-80
2022/08/21 03:20:06;;;;;;;11.20;6.07;;;;;;;;;;5095075;28;20024;-80
2022/08/21 03:22:32;;;;;;;8.85;5.57;;;;;;;;;;5095194;28;20020;-80
2022/08/21 03:24:59;;;;;;;10.25;5.55;;;;;;;;;;5109888;28;20094;-79
2022/08/21 03:27:26;;;;;;;11.80;6.72;;;;;;;;;;5115184;28;20099;-79
2022/08/21 03:29:52;;;;;;;9.70;6.82;;;;;;;;;;5096799;28;20064;-79
2022/08/21 03:32:19;;;;;;;9.40;6.20;;;;;;;;;;5114997;28;20023;-79
2022/08/21 03:34:45;;;;;;;15.15;6.85;;;;;;;;;;5115080;28;20095;-79
2022/08/21 03:37:11;;;;;;;10.95;6.40;;;;;;;;;;5115638;28;20201;-79
2022/08/21 03:39:37;;;;;;;13.35;6.75;;;;;;;;;;5115148;28;20157;-79
2022/08/21 03:42:04;;;;;;;10.25;5.82;;;;;;;;;;5114914;28;20088;-79
2022/08/21 03:44:30;;;;;;;20.70;7.57;;;;;;;;;;5114874;28;20016;-79
2022/08/21 03:46:57;;;;;;;10.32;6.35;;;;;;;;;;5115169;28;20099;-79
2022/08/21 03:49:23;;;;;;;11.68;6.93;;;;;;;;;;5115061;28;20024;-80
2022/08/21 03:51:49;;;;;;;12.30;6.72;;;;;;;;;;5114699;28;20023;-79
2022/08/21 03:54:15;;;;;;;15.57;6.57;;;;;;;;;;5096428;28;20076;-79
2022/08/21 03:56:41;;;;;;;13.95;7.18;;;;;;;;;;5114817;28;20026;-80
2022/08/21 03:59:07;;;;;;;12.35;6.53;;;;;;;;;;5114148;28;20047;-79
2022/08/21 04:01:34;;;;;;;9.48;7.03;;;;;;;;;;5114688;28;20069;-79
2022/08/21 04:04:00;;;;;;;11.98;7.15;;;;;;;;;;5114582;28;20028;-79
2022/08/21 04:06:26;;;;;;;12.75;6.70;;;;;;;;;;5114705;28;20024;-79
2022/08/21 04:08:53;;;;;;;12.02;7.72;;;;;;;;;;5101611;28;20024;-79
2022/08/21 04:11:19;;;;;;;12.38;6.97;;;;;;;;;;5094434;28;20032;-79
2022/08/21 04:13:46;;;;;;;16.23;7.53;;;;;;;;;;5094268;28;20093;-79
2022/08/21 04:16:12;;;;;;;15.13;7.60;;;;;;;;;;5075756;28;20027;-79
2022/08/21 04:18:39;;;;;;;12.43;7.05;;;;;;;;;;5094038;28;20059;-80
2022/08/21 04:21:06;;;;;;;11.48;6.75;;;;;;;;;;5094364;28;20028;-79
2022/08/21 04:23:32;;;;;;;11.90;7.78;;;;;;;;;;5093753;28;20028;-79
2022/08/21 04:25:59;;;;;;;12.68;7.63;;;;;;;;;;5093603;28;20058;-79
2022/08/21 04:28:26;;;;;;;14.15;7.15;;;;;;;;;;5093579;28;20062;-79
2022/08/21 04:30:52;;;;;;;21.13;9.57;;;;;;;;;;5093531;28;20020;-80
2022/08/21 04:33:19;;;;;;;11.23;7.13;;;;;;;;;;5093584;28;20020;-79
2022/08/21 04:35:45;;;;;;;16.98;7.25;;;;;;;;;;5093691;28;20020;-80
2022/08/21 04:38:11;;;;;;;11.60;7.00;;;;;;;;;;5093569;28;20069;-79
2022/08/21 04:40:37;;;;;;;14.25;7.25;;;;;;;;;;5093835;28;20023;-79
2022/08/21 04:43:05;;;;;;;15.80;7.53;;;;;;;;;;5093652;28;20404;-79
2022/08/21 04:45:33;;;;;;;15.38;8.00;;;;;;;;;;5075343;28;20044;-79
2022/08/21 04:48:00;;;;;;;13.80;7.50;;;;;;;;;;5112085;28;20028;-79
2022/08/21 04:50:28;;;;;;;11.18;7.13;;;;;;;;;;5114007;28;20023;-80
2022/08/21 04:52:55;;;;;;;11.55;7.00;;;;;;;;;;5113936;28;20065;-80
2022/08/21 04:55:21;;;;;;;12.75;7.60;;;;;;;;;;5114193;28;20047;-80
2022/08/21 04:57:49;;;;;;;12.45;6.82;;;;;;;;;;5113629;28;20065;-79
2022/08/21 05:00:18;;;;;;;13.18;7.40;;;;;;;;;;5114190;28;20016;-79
2022/08/21 05:02:44;;;;;;;11.60;7.97;;;;;;;;;;5113964;28;20194;-79
2022/08/21 05:05:10;;;;;;;13.30;7.80;;;;;;;;;;5113921;28;20064;-80
2022/08/21 05:07:36;;;;;;;20.52;8.13;;;;;;;;;;5113558;28;20024;-79
2022/08/21 05:10:03;;;;;;;13.68;7.68;;;;;;;;;;5113185;28;20023;-80
2022/08/21 05:12:31;;;;;;;13.43;7.70;;;;;;;;;;5113379;28;20050;-79
2022/08/21 05:14:57;;;;;;;16.33;8.25;;;;;;;;;;5113286;28;20098;-79
2022/08/21 05:17:23;;;;;;;16.45;8.60;;;;;;;;;;5113443;28;20019;-80
2022/08/21 05:19:49;;;;;;;15.55;8.65;;;;;;;;;;5113536;28;20038;-79
2022/08/21 05:22:24;;;;;;;16.00;8.52;;;;;;;;;;5113526;28;20154;-80
2022/08/21 05:24:50;;;;;;;19.10;8.65;;;;;;;;;;5091089;28;20020;-80
2022/08/21 05:27:16;;;;;;;14.90;7.95;;;;;;;;;;5101541;28;20358;-79
2022/08/21 05:29:42;;;;;;;15.48;8.50;;;;;;;;;;5113284;28;20469;-79
2022/08/21 05:32:09;;;;;;;14.95;7.78;;;;;;;;;;5113442;28;20020;-79
2022/08/21 05:34:35;;;;;;;14.63;9.02;;;;;;;;;;5113149;28;20015;-80
2022/08/21 05:37:01;;;;;;;19.55;10.13;;;;;;;;;;5094399;28;20034;-80
2022/08/21 05:39:27;;;;;;;14.25;8.57;;;;;;;;;;5094919;28;20031;-80
2022/08/21 05:41:53;;;;;;;13.93;9.55;;;;;;;;;;5113045;28;20110;-80
2022/08/21 05:44:19;;;;;;;12.77;8.85;;;;;;;;;;5113261;28;20422;-79
2022/08/21 05:46:45;;;;;;;14.32;8.23;;;;;;;;;;5113274;28;20035;-80
2022/08/21 05:49:11;;;;;;;13.85;8.10;;;;;;;;;;5112968;28;20382;-80
2022/08/21 05:51:40;;;;;;;17.25;10.00;;;;;;;;;;5113293;28;20020;-79
2022/08/21 05:54:06;;;;;;;16.85;11.00;;;;;;;;;;5112882;28;20022;-79
2022/08/21 05:56:32;;;;;;;16.52;10.10;;;;;;;;;;5108643;27;20030;-79
2022/08/21 05:58:58;;;;;;;15.32;9.32;;;;;;;;;;5123362;27;20055;-79
2022/08/21 06:01:24;;;;;;;16.20;10.35;;;;;;;;;;5126437;28;20102;-79
2022/08/21 06:03:50;;;;;;;15.70;9.50;;;;;;;;;;5121103;28;20024;-79
2022/08/21 06:06:16;;;;;;;17.33;9.45;;;;;;;;;;5114080;28;20035;-79
2022/08/21 06:08:43;;;;;;;17.20;9.40;;;;;;;;;;5121403;28;20072;-79
2022/08/21 06:11:10;;;;;;;14.80;9.45;;;;;;;;;;5119183;28;20066;-79
2022/08/21 06:13:36;;;;;;;16.60;9.73;;;;;;;;;;5133629;28;20034;-79
2022/08/21 06:16:04;;;;;;;22.45;10.38;;;;;;;;;;5118285;28;20026;-79
2022/08/21 06:18:31;;;;;;;17.38;10.55;;;;;;;;;;5108861;28;20019;-79
2022/08/21 06:20:57;;;;;;;19.45;9.18;;;;;;;;;;5129516;27;20307;-79
2022/08/21 06:23:23;;;;;;;16.30;9.75;;;;;;;;;;5116617;28;20467;-81
2022/08/21 06:25:49;;;;;;;18.25;8.85;;;;;;;;;;5119629;27;20031;-79
2022/08/21 06:28:15;;;;;;;16.17;8.93;;;;;;;;;;5118357;27;20092;-79
2022/08/21 06:30:41;;;;;;;14.88;8.88;;;;;;;;;;5097975;28;20080;-79
2022/08/21 06:33:07;;;;;;;15.35;7.95;;;;;;;;;;5131330;27;20099;-79
2022/08/21 06:35:34;;;;;;;19.48;8.25;;;;;;;;;;5123315;27;20123;-79
2022/08/21 06:38:00;;;;;;;15.50;8.23;;;;;;;;;;5126481;27;20407;-79
2022/08/21 06:40:27;;;;;;;15.57;7.70;;;;;;;;;;5124627;27;20019;-78
2022/08/21 06:42:53;;;;;;;15.40;7.45;;;;;;;;;;5121787;27;20424;-78
2022/08/21 06:45:19;;;;;;;17.67;8.18;;;;;;;;;;5123198;27;20477;-79
2022/08/21 06:47:45;;;;;;;15.18;7.30;;;;;;;;;;5125386;27;20055;-79
2022/08/21 06:50:11;;;;;;;17.30;7.13;;;;;;;;;;5118750;27;20072;-78
2022/08/21 06:52:38;;;;;;;17.75;7.32;;;;;;;;;;5109112;28;20020;-79
2022/08/21 06:55:08;;;;;;;25.30;6.85;;;;;;;;;;5122481;27;20023;-78
2022/08/21 06:57:34;;;;;;;16.85;6.53;;;;;;;;;;5110187;28;20040;-78
2022/08/21 07:00:00;;;;;;;20.63;6.55;;;;;;;;;;5115182;28;20022;-78
2022/08/21 07:02:26;;;;;;;13.38;6.40;;;;;;;;;;5117979;27;20036;-78
2022/08/21 07:04:54;;;;;;;18.50;6.07;;;;;;;;;;5119185;27;20067;-78
2022/08/21 07:07:20;;;;;;;18.10;6.38;;;;;;;;;;5125686;27;20034;-78
2022/08/21 07:09:46;;;;;;;15.20;5.32;;;;;;;;;;5135283;27;20027;-79
2022/08/21 07:12:13;;;;;;;20.83;7.35;;;;;;;;;;5115442;27;20019;-79
2022/08/21 07:14:39;;;;;;;15.50;5.45;;;;;;;;;;5126524;27;20133;-79
2022/08/21 07:17:05;;;;;;;14.60;6.28;;;;;;;;;;5109270;28;20062;-78
2022/08/21 07:19:31;;;;;;;19.23;6.28;;;;;;;;;;5123897;27;20369;-78
2022/08/21 07:21:59;;;;;;;19.95;5.40;;;;;;;;;;5117087;27;20391;-79
2022/08/21 07:24:25;;;;;;;21.70;5.97;;;;;;;;;;5128253;27;20094;-79
2022/08/21 07:26:51;;;;;;;17.55;5.60;;;;;;;;;;5099558;28;20183;-79
2022/08/21 07:29:18;;;;;;;15.68;5.47;;;;;;;;;;5130144;27;20048;-80
2022/08/21 07:31:44;;;;;;;19.13;6.68;;;;;;;;;;5126595;27;20472;-79
2022/08/21 07:34:10;;;;;;;16.23;5.32;;;;;;;;;;5123001;27;20019;-79
2022/08/21 07:36:36;;;;;;;17.38;5.97;;;;;;;;;;5103986;27;20045;-78
2022/08/21 07:39:03;;;;;;;17.80;5.78;;;;;;;;;;5121862;27;20027;-78
2022/08/21 07:41:30;;;;;;;20.42;5.95;;;;;;;;;;5106672;27;20042;-78
2022/08/21 07:43:59;;;;;;;17.75;5.03;;;;;;;;;;5135804;27;20144;-79
2022/08/21 07:46:25;;;;;;;15.77;4.95;;;;;;;;;;5132775;27;20107;-81
2022/08/21 07:48:52;;;;;;;19.48;5.05;;;;;;;;;;5107568;27;20031;-79
2022/08/21 07:51:19;;;;;;;17.13;5.05;;;;;;;;;;5134483;27;20035;-79
2022/08/21 07:53:49;;;;;;;14.18;4.55;;;;;;;;;;5118170;27;20022;-79
2022/08/21 07:56:15;;;;;;;17.45;4.75;;;;;;;;;;5130964;27;20539;-79
2022/08/21 07:58:42;;;;;;;17.63;4.50;;;;;;;;;;5121014;27;20078;-79
2022/08/21 08:01:08;;;;;;;17.85;4.70;;;;;;;;;;5115045;27;20042;-80
2022/08/21 08:03:34;;;;;;;17.23;5.15;;;;;;;;;;5120815;27;20031;-79
2022/08/21 08:06:00;;;;;;;17.42;5.18;;;;;;;;;;5115142;28;20043;-80
2022/08/21 08:08:27;;;;;;;18.95;5.03;;;;;;;;;;5114710;28;20028;-80
2022/08/21 08:10:54;;;;;;;17.52;5.15;;;;;;;;;;5096434;28;20362;-81
2022/08/21 08:13:20;;;;;;;15.18;4.75;;;;;;;;;;5115304;28;20117;-80
2022/08/21 08:15:46;;;;;;;14.95;4.63;;;;;;;;;;5115419;28;20031;-81
2022/08/21 08:18:13;;;;;;;18.58;5.13;;;;;;;;;;5113803;28;20033;-82
2022/08/21 08:20:40;;;;;;;13.55;4.15;;;;;;;;;;5115146;28;20025;-82
2022/08/21 08:23:07;;;;;;;24.15;5.40;;;;;;;;;;5113386;28;20042;-81
2022/08/21 08:25:33;;;;;;;19.45;5.00;;;;;;;;;;5114628;28;20034;-81
2022/08/21 08:27:59;;;;;;;13.13;4.75;;;;;;;;;;5115501;27;20031;-79
2022/08/21 08:30:25;;;;;;;18.58;5.15;;;;;;;;;;5120993;27;20072;-79
2022/08/21 08:32:51;;;;;;;18.35;4.70;;;;;;;;;;5123117;27;20023;-80
2022/08/21 08:35:17;;;;;;;16.30;4.75;;;;;;;;;;5134385;27;20023;-79
2022/08/21 08:37:45;;;;;;;13.23;4.38;;;;;;;;;;5128718;27;20174;-79
2022/08/21 08:40:14;;;;;;;18.83;4.85;;;;;;;;;;5134928;27;20083;-79
2022/08/21 08:42:40;;;;;;;18.15;4.20;;;;;;;;;;5124499;27;20039;-82
2022/08/21 08:45:08;;;;;;;16.45;4.05;;;;;;;;;;5113673;28;20031;-80
2022/08/21 08:47:37;;;;;;;18.67;4.78;;;;;;;;;;5114538;28;20488;-81
2022/08/21 08:50:06;;;;;;;13.85;4.20;;;;;;;;;;5098259;28;20026;-82
2022/08/21 08:52:37;;;;;;;15.15;4.13;;;;;;;;;;5098603;27;20385;-81
2022/08/21 08:55:13;;;;;;;17.73;4.33;;;;;;;;;;5116872;27;20118;-82
2022/08/21 08:57:41;;;;;;;18.02;4.40;;;;;;;;;;5110698;28;20096;-82
2022/08/21 09:00:10;;;;;;;17.05;3.40;;;;;;;;;;5094032;28;20031;-82
2022/08/21 09:02:39;;;;;;;14.00;3.63;;;;;;;;;;5094444;28;20020;-82
2022/08/21 09:05:05;;;;;;;9.27;2.72;;;;;;;;;;5093940;28;20382;-82
2022/08/21 09:07:31;;;;;;;17.50;3.25;;;;;;;;;;5075232;28;20362;-80
2022/08/21 09:10:17;;;;;;;17.08;4.20;;;;;;;;;;5093840;28;20032;-80
2022/08/21 09:12:48;;;;;;;12.20;3.17;;;;;;;;;;5094204;28;20051;-81
2022/08/21 09:15:27;;;;;;;12.57;2.92;;;;;;;;;;5093585;28;20074;-81
2022/08/21 09:17:53;;;;;;;11.02;2.25;;;;;;;;;;5093720;28;20374;-81
2022/08/21 09:20:38;;;;;;;13.50;2.33;;;;;;;;;;5093555;28;20020;-80
2022/08/21 09:23:19;;;;;;;13.30;3.08;;;;;;;;;;5092817;28;20043;-80
2022/08/21 09:25:45;;;;;;;10.98;2.53;;;;;;;;;;5093357;28;20051;-80
2022/08/21 09:28:13;;;;;;;7.80;1.98;;;;;;;;;;5093176;28;20098;-80
2022/08/21 09:30:40;;;;;;;11.48;2.17;;;;;;;;;;5098635;28;20379;-80
2022/08/21 09:33:07;;;;;;;10.77;2.13;;;;;;;;;;5077827;28;20106;-80
2022/08/21 09:35:35;;;;;;;12.27;1.92;;;;;;;;;;5107253;28;20031;-80
2022/08/21 09:38:05;;;;;;;12.93;2.67;;;;;;;;;;5101367;28;20031;-80
2022/08/21 09:40:42;;;;;;;10.93;2.78;;;;;;;;;;5102447;28;20505;-79
2022/08/21 09:43:08;;;;;;;9.27;2.33;;;;;;;;;;5091821;28;20466;-80
2022/08/21 09:45:34;;;;;;;10.65;1.60;;;;;;;;;;5078949;28;20016;-80
2022/08/21 09:48:13;;;;;;;7.70;2.03;;;;;;;;;;5092857;28;20024;-80
2022/08/21 09:50:40;;;;;;;12.48;1.95;;;;;;;;;;5113313;28;20022;-80
2022/08/21 09:53:14;;;;;;;9.52;1.70;;;;;;;;;;5101065;28;20020;-80
2022/08/21 09:58:34;;;;;;;12.10;2.00;;;;;;;;;;5123362;27;20050;-80
2022/08/21 10:01:02;;;;;;;18.58;1.98;;;;;;;;;;5119521;27;20024;-81
2022/08/21 10:03:28;;;;;;;11.20;2.13;;;;;;;;;;5113602;28;20012;-80
2022/08/21 10:05:57;;;;;;;10.57;1.95;;;;;;;;;;5113242;28;20020;-80
2022/08/21 10:08:24;;;;;;;7.30;1.90;;;;;;;;;;5104501;28;20024;-80
2022/08/21 10:10:52;;;;;;;6.72;1.77;;;;;;;;;;5108094;28;20020;-82
2022/08/21 10:13:23;;;;;;;9.20;1.77;;;;;;;;;;5092253;28;20107;-82
2022/08/21 10:15:55;;;;;;;9.98;2.13;;;;;;;;;;5092630;28;20502;-81
2022/08/21 10:18:21;;;;;;;10.17;1.90;;;;;;;;;;5106509;28;20091;-82
2022/08/21 10:21:19;;;;;;;11.63;2.17;;;;;;;;;;5096918;28;20818;-80
2022/08/21 10:24:08;;;;;;;10.43;2.92;;;;;;;;;;5074819;28;20047;-81
2022/08/21 10:26:43;;;;;;;7.75;1.73;;;;;;;;;;5119615;28;20077;-81
2022/08/21 10:29:09;;;;;;;11.00;2.08;;;;;;;;;;5126775;28;20096;-80
2022/08/21 10:31:48;;;;;;;10.85;1.60;;;;;;;;;;5120965;28;20020;-81
2022/08/21 10:34:37;;;;;;;6.32;1.40;;;;;;;;;;5121837;28;20065;-80
2022/08/21 10:37:21;;;;;;;7.65;1.80;;;;;;;;;;5106147;28;20027;-81
2022/08/21 10:39:57;;;;;;;6.55;1.67;;;;;;;;;;5092890;28;20023;-83
2022/08/21 10:42:42;;;;;;;6.45;1.73;;;;;;;;;;5108773;28;20055;-83
2022/08/21 10:45:14;;;;;;;9.85;1.85;;;;;;;;;;5094488;28;20020;-81
2022/08/21 10:47:41;;;;;;;;;;;;;;;;;;5113141;28;20030;-86
2022/08/21 10:50:07;;;;;;;11.73;1.63;;;;;;;;;;5112598;28;20007;-84
2022/08/21 10:52:45;;;;;;;9.85;1.67;;;;;;;;;;5112590;28;20023;-85
2022/08/21 10:55:27;;;;;;;8.25;2.00;;;;;;;;;;5112435;28;20018;-85
2022/08/21 10:57:57;;;;;;;10.23;1.80;;;;;;;;;;5102394;28;20119;-85
2022/08/21 11:00:24;;;;;;;14.43;1.85;;;;;;;;;;5092058;28;20115;-85
2022/08/21 11:03:11;;;;;;;8.07;2.00;;;;;;;;;;5073717;28;20802;-84
2022/08/21 11:05:40;;;;;;;6.63;1.90;;;;;;;;;;5091814;28;20024;-84
2022/08/21 11:08:15;;;;;;;7.60;1.58;;;;;;;;;;5092697;28;20043;-84
2022/08/21 11:10:57;;;;;;;10.95;1.67;;;;;;;;;;5077309;28;20023;-84
2022/08/21 11:13:42;;;;;;;7.72;1.45;;;;;;;;;;5077365;28;20085;-84
2022/08/21 11:16:14;;;;;;;12.73;2.35;;;;;;;;;;5095782;28;20020;-84
2022/08/21 11:18:43;;;;;;;6.07;1.90;;;;;;;;;;5095584;28;20043;-84
2022/08/21 11:21:09;;;;;;;9.10;1.83;;;;;;;;;;5096110;28;20359;-84
2022/08/21 11:23:53;;;;;;;6.45;1.88;;;;;;;;;;5074182;28;20035;-84
2022/08/21 11:26:26;;;;;;;7.45;1.73;;;;;;;;;;5057186;28;20449;-84
2022/08/21 11:28:54;;;;;;;10.50;1.88;;;;;;;;;;5075340;28;20036;-84
2022/08/21 11:31:36;;;;;;;10.35;2.00;;;;;;;;;;5057064;28;20020;-84
2022/08/21 11:34:02;;;;;;;;;;;;;;;;;;5075685;28;20021;-84
2022/08/21 11:36:39;;;;;;;5.15;1.20;;;;;;;;;;5075155;28;20308;-84
2022/08/21 11:39:27;;;;;;;6.05;1.35;;;;;;;;;;5075121;28;20017;-84
2022/08/21 11:42:05;;;;;;;4.22;1.05;;;;;;;;;;5086715;28;20459;-84
2022/08/21 11:44:32;;;;;;;9.82;1.80;;;;;;;;;;5076984;28;20024;-84
2022/08/21 11:47:06;;;;;;;11.30;1.83;;;;;;;;;;5076885;28;20402;-84
2022/08/21 11:49:54;;;;;;;11.32;1.63;;;;;;;;;;5076747;28;20020;-84
2022/08/21 11:52:26;;;;;;;4.22;1.23;;;;;;;;;;5076795;28;20363;-83
2022/08/21 11:54:53;;;;;;;6.65;1.40;;;;;;;;;;5076907;28;20024;-83
2022/08/21 11:57:22;;;;;;;7.45;1.50;;;;;;;;;;5105044;27;20408;-83
2022/08/21 11:59:48;;;;;;;8.52;1.33;;;;;;;;;;5133731;27;20047;-87
2022/08/21 12:02:16;;;;;;;7.65;1.30;;;;;;;;;;5130979;27;20502;-86
2022/08/21 12:04:44;;;;;;;7.65;1.65;;;;;;;;;;5123088;27;20526;-87
2022/08/21 12:07:34;;;;;;;6.32;1.60;;;;;;;;;;5102428;28;20059;-86
2022/08/21 12:10:01;;;;;;;8.70;1.30;;;;;;;;;;5095083;28;20027;-86
2022/08/21 12:12:28;;;;;;;4.22;1.30;;;;;;;;;;5077084;28;20032;-85
2022/08/21 12:15:06;;;;;;;6.75;1.45;;;;;;;;;;5095447;28;20103;-87
2022/08/21 12:17:36;;;;;;;5.47;1.52;;;;;;;;;;5094887;28;20031;-87
2022/08/21 12:20:26;;;;;;;7.28;1.50;;;;;;;;;;5076106;28;20028;-87
2022/08/21 12:23:12;;;;;;;8.25;1.70;;;;;;;;;;5076486;28;20028;-88
2022/08/21 12:25:41;;;;;;;7.80;1.73;;;;;;;;;;5096462;28;20376;-83
2022/08/21 12:28:12;;;;;;;4.03;1.17;;;;;;;;;;5114742;28;20051;-84
2022/08/21 12:30:39;;;;;;;7.13;1.70;;;;;;;;;;5096290;28;20020;-85
2022/08/21 12:33:23;;;;;;;4.20;1.08;;;;;;;;;;5115476;28;20081;-85
2022/08/21 12:35:51;;;;;;;5.70;1.27;;;;;;;;;;5115459;28;20069;-84
2022/08/21 12:38:44;;;;;;;8.55;1.40;;;;;;;;;;5097285;28;20050;-83
2022/08/21 12:41:13;;;;;;;5.40;1.50;;;;;;;;;;5063072;28;20504;-86
2022/08/21 12:43:41;;;;;;;7.75;1.50;;;;;;;;;;5114974;28;20031;-86
2022/08/21 12:46:15;;;;;;;4.25;1.20;;;;;;;;;;5096529;28;20111;-87
2022/08/21 12:49:00;;;;;;;6.00;1.95;;;;;;;;;;5096178;28;20028;-86
2022/08/21 12:51:31;;;;;;;6.20;1.27;;;;;;;;;;5114380;28;20023;-86
2022/08/21 12:53:58;;;;;;;7.65;1.30;;;;;;;;;;5114227;28;20085;-85
2022/08/21 12:56:26;;;;;;;7.40;1.83;;;;;;;;;;5114084;28;20023;-85
2022/08/21 12:58:55;;;;;;;8.82;1.83;;;;;;;;;;5094717;28;20433;-86
2022/08/21 13:01:26;;;;;;;8.63;1.52;;;;;;;;;;5106497;27;20527;-86
2022/08/21 13:03:57;;;;;;;6.00;1.50;;;;;;;;;;5126854;27;20075;-85
2022/08/21 13:06:24;;;;;;;9.33;1.90;;;;;;;;;;5123427;27;20095;-85
2022/08/21 13:08:55;;;;;;;7.90;1.42;;;;;;;;;;5122861;27;20035;-84
2022/08/21 13:11:22;;;;;;;5.35;1.75;;;;;;;;;;5125037;27;20026;-84
2022/08/21 13:13:50;;;;;;;9.55;2.08;;;;;;;;;;5117819;27;20478;-84
2022/08/21 13:16:20;;;;;;;7.57;1.70;;;;;;;;;;5114306;28;20042;-84
2022/08/21 13:18:54;;;;;;;9.43;1.73;;;;;;;;;;5114167;28;20028;-87
2022/08/21 13:21:21;;;;;;;9.77;1.55;;;;;;;;;;5096036;28;20359;-80
2022/08/21 13:23:47;;;;;;;7.38;1.88;;;;;;;;;;5119376;27;20103;-80
2022/08/21 13:26:21;;;;;;;8.75;1.70;;;;;;;;;;5128420;27;20102;-80
2022/08/21 13:28:47;;;;;;;8.77;1.65;;;;;;;;;;5125411;27;20027;-80
2022/08/21 13:31:17;;;;;;;9.20;1.50;;;;;;;;;;5118122;27;20435;-80
2022/08/21 13:33:44;;;;;;;7.40;1.20;;;;;;;;;;5090475;28;20557;-83
2022/08/21 13:36:12;;;;;;;5.45;1.50;;;;;;;;;;5132567;27;20011;-82
2022/08/21 13:38:40;;;;;;;5.72;1.17;;;;;;;;;;5122749;27;20027;-82
2022/08/21 13:41:11;;;;;;;6.18;1.55;;;;;;;;;;5115461;27;20024;-82
2022/08/21 13:43:37;;;;;;;4.50;1.07;;;;;;;;;;5118129;27;20035;-83
2022/08/21 13:46:08;;;;;;;3.90;1.20;;;;;;;;;;5129990;27;20048;-82
2022/08/21 13:48:35;;;;;;;6.05;1.08;;;;;;;;;;5135292;27;20024;-81
2022/08/21 13:51:01;;;;;;;4.63;1.40;;;;;;;;;;5106146;27;20027;-83
2022/08/21 13:53:35;;;;;;;4.53;1.27;;;;;;;;;;5133848;27;20026;-83
2022/08/21 13:56:02;;;;;;;8.35;2.08;;;;;;;;;;5123159;27;20012;-82
2022/08/21 13:58:30;;;;;;;5.20;1.05;;;;;;;;;;5118736;28;20047;-85
2022/08/21 14:00:56;;;;;;;5.43;0.90;;;;;;;;;;5116656;27;20023;-86
2022/08/21 14:03:33;;;;;;;5.22;1.02;;;;;;;;;;5118227;28;20023;-86
2022/08/21 14:05:59;;;;;;;7.50;1.35;;;;;;;;;;5113742;28;20527;-86
2022/08/21 14:08:32;;;;;;;7.25;1.38;;;;;;;;;;5109648;28;20082;-86
2022/08/21 14:10:59;;;;;;;3.55;1.00;;;;;;;;;;5096030;28;20111;-87
2022/08/21 14:13:30;;;;;;;5.35;1.05;;;;;;;;;;5107121;28;20032;-85
2022/08/21 14:16:00;;;;;;;3.60;1.05;;;;;;;;;;5107620;28;20056;-87
2022/08/21 14:18:26;;;;;;;9.13;1.30;;;;;;;;;;5123711;28;20031;-87
2022/08/21 14:20:52;;;;;;;5.70;1.15;;;;;;;;;;5129146;28;20124;-87
2022/08/21 14:23:25;;;;;;;5.75;1.58;;;;;;;;;;5124134;28;20069;-87
2022/08/21 14:25:53;;;;;;;7.07;1.35;;;;;;;;;;5119870;28;20072;-87
2022/08/21 14:28:28;;;;;;;7.10;1.80;;;;;;;;;;5119665;28;20027;-87
2022/08/21 14:30:55;;;;;;;5.57;1.42;;;;;;;;;;5131175;28;20011;-87
2022/08/21 14:33:39;;;;;;;4.25;1.15;;;;;;;;;;5113841;28;20017;-88
2022/08/21 14:36:05;;;;;;;10.88;1.20;;;;;;;;;;5113890;28;20016;-87
2022/08/21 14:38:32;;;;;;;7.55;1.15;;;;;;;;;;5112100;28;20012;-84
2022/08/21 14:41:00;;;;;;;5.65;1.30;;;;;;;;;;5106594;28;20015;-83
2022/08/21 14:43:27;;;;;;;9.95;1.77;;;;;;;;;;5116601;28;20020;-80
2022/08/21 14:45:53;;;;;;;4.88;1.10;;;;;;;;;;5116168;27;20016;-85
2022/08/21 14:48:20;;;;;;;7.93;1.65;;;;;;;;;;5116624;28;20023;-86